sensor_id;sensor_type;location;lat;lon;timestamp;P1;durP1;ratioP1;P2;durP2;ratioP2
35803;SDS011;21924;51.934;7.414;2023-06-14T00:00:47;8.02;;;3.30;;
35803;SDS011;21924;51.934;7.414;2023-06-14T00:03:32;4.75;;;3.00;;
35803;SDS011;21924;51.934;7.414;2023-06-14T00:06:16;6.28;;;2.80;;
35803;SDS011;21924;51.934;7.414;2023-06-14T00:09:01;8.25;;;2.92;;
35803;SDS011;21924;51.934;7.414;2023-06-14T00:11:45;6.63;;;2.67;;
35803;SDS011;21924;51.934;7.414;2023-06-14T00:14:29;5.75;;;3.03;;
35803;SDS011;21924;51.934;7.414;2023-06-14T00:17:14;4.13;;;2.42;;
35803;SDS011;21924;51.934;7.414;2023-06-14T00:20:02;5.45;;;2.75;;
35803;SDS011;21924;51.934;7.414;2023-06-14T00:22:51;6.50;;;2.70;;
35803;SDS011;21924;51.934;7.414;2023-06-14T00:25:35;5.80;;;2.75;;
35803;SDS011;21924;51.934;7.414;2023-06-14T00:28:19;5.30;;;2.90;;
35803;SDS011;21924;51.934;7.414;2023-06-14T00:31:03;7.43;;;2.55;;
35803;SDS011;21924;51.934;7.414;2023-06-14T00:33:48;4.70;;;2.70;;
35803;SDS011;21924;51.934;7.414;2023-06-14T00:36:32;7.85;;;2.80;;
35803;SDS011;21924;51.934;7.414;2023-06-14T00:39:16;4.97;;;2.60;;
35803;SDS011;21924;51.934;7.414;2023-06-14T00:42:01;5.13;;;2.63;;
35803;SDS011;21924;51.934;7.414;2023-06-14T00:44:45;5.03;;;2.80;;
35803;SDS011;21924;51.934;7.414;2023-06-14T00:47:29;6.93;;;2.70;;
35803;SDS011;21924;51.934;7.414;2023-06-14T00:50:14;5.65;;;2.72;;
35803;SDS011;21924;51.934;7.414;2023-06-14T00:52:59;4.50;;;2.50;;
35803;SDS011;21924;51.934;7.414;2023-06-14T00:55:44;6.63;;;2.28;;
35803;SDS011;21924;51.934;7.414;2023-06-14T00:58:28;9.73;;;2.53;;
35803;SDS011;21924;51.934;7.414;2023-06-14T01:01:14;4.63;;;2.60;;
35803;SDS011;21924;51.934;7.414;2023-06-14T01:03:58;5.10;;;2.33;;
35803;SDS011;21924;51.934;7.414;2023-06-14T01:12:58;7.93;;;2.80;;
35803;SDS011;21924;51.934;7.414;2023-06-14T01:15:51;8.17;;;2.53;;
35803;SDS011;21924;51.934;7.414;2023-06-14T01:18:36;4.45;;;2.30;;
35803;SDS011;21924;51.934;7.414;2023-06-14T01:21:21;4.68;;;2.50;;
35803;SDS011;21924;51.934;7.414;2023-06-14T01:24:08;7.22;;;2.30;;
35803;SDS011;21924;51.934;7.414;2023-06-14T01:26:53;4.95;;;2.42;;
35803;SDS011;21924;51.934;7.414;2023-06-14T01:29:39;7.85;;;2.55;;
35803;SDS011;21924;51.934;7.414;2023-06-14T01:32:29;6.53;;;2.35;;
35803;SDS011;21924;51.934;7.414;2023-06-14T01:35:14;5.25;;;2.50;;
35803;SDS011;21924;51.934;7.414;2023-06-14T01:37:58;4.70;;;2.40;;
35803;SDS011;21924;51.934;7.414;2023-06-14T01:40:44;5.68;;;2.45;;
35803;SDS011;21924;51.934;7.414;2023-06-14T01:43:29;5.95;;;2.55;;
35803;SDS011;21924;51.934;7.414;2023-06-14T01:46:14;6.88;;;2.33;;
35803;SDS011;21924;51.934;7.414;2023-06-14T01:48:59;8.48;;;2.45;;
35803;SDS011;21924;51.934;7.414;2023-06-14T01:51:43;3.70;;;2.30;;
35803;SDS011;21924;51.934;7.414;2023-06-14T01:54:28;9.40;;;2.28;;
35803;SDS011;21924;51.934;7.414;2023-06-14T01:57:12;3.65;;;2.53;;
35803;SDS011;21924;51.934;7.414;2023-06-14T01:59:57;5.80;;;2.67;;
35803;SDS011;21924;51.934;7.414;2023-06-14T02:02:41;6.97;;;2.55;;
35803;SDS011;21924;51.934;7.414;2023-06-14T02:05:26;4.27;;;2.17;;
35803;SDS011;21924;51.934;7.414;2023-06-14T02:08:10;4.40;;;2.65;;
35803;SDS011;21924;51.934;7.414;2023-06-14T02:10:54;7.20;;;2.60;;
35803;SDS011;21924;51.934;7.414;2023-06-14T02:13:38;5.15;;;2.50;;
35803;SDS011;21924;51.934;7.414;2023-06-14T02:16:23;3.95;;;2.45;;
35803;SDS011;21924;51.934;7.414;2023-06-14T02:19:08;5.45;;;2.30;;
35803;SDS011;21924;51.934;7.414;2023-06-14T02:21:52;7.05;;;2.65;;
35803;SDS011;21924;51.934;7.414;2023-06-14T02:24:37;5.32;;;2.42;;
35803;SDS011;21924;51.934;7.414;2023-06-14T02:27:21;4.93;;;2.30;;
35803;SDS011;21924;51.934;7.414;2023-06-14T02:30:05;6.05;;;2.50;;
35803;SDS011;21924;51.934;7.414;2023-06-14T02:32:50;4.47;;;2.40;;
35803;SDS011;21924;51.934;7.414;2023-06-14T02:35:36;6.80;;;2.45;;
35803;SDS011;21924;51.934;7.414;2023-06-14T02:38:21;5.10;;;3.05;;
35803;SDS011;21924;51.934;7.414;2023-06-14T02:41:05;5.13;;;2.50;;
35803;SDS011;21924;51.934;7.414;2023-06-14T02:43:49;4.78;;;2.30;;
35803;SDS011;21924;51.934;7.414;2023-06-14T02:46:33;7.93;;;2.90;;
35803;SDS011;21924;51.934;7.414;2023-06-14T02:49:18;4.05;;;2.33;;
35803;SDS011;21924;51.934;7.414;2023-06-14T02:52:02;7.75;;;2.53;;
35803;SDS011;21924;51.934;7.414;2023-06-14T02:54:46;4.38;;;2.30;;
35803;SDS011;21924;51.934;7.414;2023-06-14T02:57:31;6.75;;;2.47;;
35803;SDS011;21924;51.934;7.414;2023-06-14T03:00:15;5.05;;;2.45;;
35803;SDS011;21924;51.934;7.414;2023-06-14T03:03:00;4.90;;;2.70;;
35803;SDS011;21924;51.934;7.414;2023-06-14T03:05:46;9.13;;;2.42;;
35803;SDS011;21924;51.934;7.414;2023-06-14T03:08:33;4.40;;;2.45;;
35803;SDS011;21924;51.934;7.414;2023-06-14T03:11:22;10.10;;;2.93;;
35803;SDS011;21924;51.934;7.414;2023-06-14T03:14:06;5.95;;;2.42;;
35803;SDS011;21924;51.934;7.414;2023-06-14T03:16:51;7.70;;;3.05;;
35803;SDS011;21924;51.934;7.414;2023-06-14T03:19:40;6.47;;;2.90;;
35803;SDS011;21924;51.934;7.414;2023-06-14T03:22:24;4.60;;;2.13;;
35803;SDS011;21924;51.934;7.414;2023-06-14T03:25:09;5.10;;;2.50;;
35803;SDS011;21924;51.934;7.414;2023-06-14T03:27:54;5.38;;;2.40;;
35803;SDS011;21924;51.934;7.414;2023-06-14T03:30:38;5.57;;;2.60;;
35803;SDS011;21924;51.934;7.414;2023-06-14T03:33:22;4.63;;;2.47;;
35803;SDS011;21924;51.934;7.414;2023-06-14T03:36:09;8.23;;;2.80;;
35803;SDS011;21924;51.934;7.414;2023-06-14T03:38:53;6.03;;;2.22;;
35803;SDS011;21924;51.934;7.414;2023-06-14T03:41:38;4.10;;;2.50;;
35803;SDS011;21924;51.934;7.414;2023-06-14T03:44:23;6.82;;;2.58;;
35803;SDS011;21924;51.934;7.414;2023-06-14T03:47:07;3.90;;;2.50;;
35803;SDS011;21924;51.934;7.414;2023-06-14T03:49:51;3.65;;;2.30;;
35803;SDS011;21924;51.934;7.414;2023-06-14T03:52:35;12.57;;;2.70;;
35803;SDS011;21924;51.934;7.414;2023-06-14T03:55:20;5.30;;;2.60;;
35803;SDS011;21924;51.934;7.414;2023-06-14T03:58:04;9.35;;;2.88;;
35803;SDS011;21924;51.934;7.414;2023-06-14T04:00:49;5.68;;;2.30;;
35803;SDS011;21924;51.934;7.414;2023-06-14T04:03:33;12.35;;;2.72;;
35803;SDS011;21924;51.934;7.414;2023-06-14T04:06:17;5.45;;;2.40;;
35803;SDS011;21924;51.934;7.414;2023-06-14T04:09:03;6.53;;;2.70;;
35803;SDS011;21924;51.934;7.414;2023-06-14T04:11:47;5.53;;;2.97;;
35803;SDS011;21924;51.934;7.414;2023-06-14T04:14:31;6.32;;;2.45;;
35803;SDS011;21924;51.934;7.414;2023-06-14T04:17:18;4.60;;;2.45;;
35803;SDS011;21924;51.934;7.414;2023-06-14T04:20:03;6.43;;;2.63;;
35803;SDS011;21924;51.934;7.414;2023-06-14T04:22:50;3.35;;;2.10;;
35803;SDS011;21924;51.934;7.414;2023-06-14T04:25:34;4.03;;;2.20;;
35803;SDS011;21924;51.934;7.414;2023-06-14T04:28:18;7.80;;;2.85;;
35803;SDS011;21924;51.934;7.414;2023-06-14T04:31:03;5.03;;;2.35;;
35803;SDS011;21924;51.934;7.414;2023-06-14T04:33:47;12.68;;;3.20;;
35803;SDS011;21924;51.934;7.414;2023-06-14T04:36:34;8.73;;;3.17;;
35803;SDS011;21924;51.934;7.414;2023-06-14T04:39:22;5.00;;;2.40;;
35803;SDS011;21924;51.934;7.414;2023-06-14T04:42:07;6.60;;;2.60;;
35803;SDS011;21924;51.934;7.414;2023-06-14T04:44:51;5.68;;;2.55;;
35803;SDS011;21924;51.934;7.414;2023-06-14T04:47:39;5.15;;;2.33;;
35803;SDS011;21924;51.934;7.414;2023-06-14T04:50:24;5.00;;;2.25;;
35803;SDS011;21924;51.934;7.414;2023-06-14T04:53:08;6.25;;;2.22;;
35803;SDS011;21924;51.934;7.414;2023-06-14T04:55:54;13.48;;;2.72;;
35803;SDS011;21924;51.934;7.414;2023-06-14T04:58:39;11.05;;;2.63;;
35803;SDS011;21924;51.934;7.414;2023-06-14T05:01:23;4.57;;;2.38;;
35803;SDS011;21924;51.934;7.414;2023-06-14T05:04:08;9.43;;;3.10;;
35803;SDS011;21924;51.934;7.414;2023-06-14T05:06:52;5.38;;;2.55;;
35803;SDS011;21924;51.934;7.414;2023-06-14T05:09:38;7.60;;;2.20;;
35803;SDS011;21924;51.934;7.414;2023-06-14T05:12:22;5.22;;;2.33;;
35803;SDS011;21924;51.934;7.414;2023-06-14T05:15:07;4.88;;;2.20;;
35803;SDS011;21924;51.934;7.414;2023-06-14T05:17:53;7.10;;;2.40;;
35803;SDS011;21924;51.934;7.414;2023-06-14T05:20:39;5.63;;;2.38;;
35803;SDS011;21924;51.934;7.414;2023-06-14T05:23:25;5.13;;;2.25;;
35803;SDS011;21924;51.934;7.414;2023-06-14T05:26:09;8.45;;;2.10;;
35803;SDS011;21924;51.934;7.414;2023-06-14T05:28:56;7.45;;;2.50;;
35803;SDS011;21924;51.934;7.414;2023-06-14T05:31:41;5.47;;;2.42;;
35803;SDS011;21924;51.934;7.414;2023-06-14T05:34:26;5.05;;;2.47;;
35803;SDS011;21924;51.934;7.414;2023-06-14T05:37:10;5.18;;;2.47;;
35803;SDS011;21924;51.934;7.414;2023-06-14T05:39:54;6.18;;;2.55;;
35803;SDS011;21924;51.934;7.414;2023-06-14T05:42:38;10.60;;;2.67;;
35803;SDS011;21924;51.934;7.414;2023-06-14T05:45:22;8.00;;;2.45;;
35803;SDS011;21924;51.934;7.414;2023-06-14T05:48:06;4.57;;;2.55;;
35803;SDS011;21924;51.934;7.414;2023-06-14T05:50:51;5.25;;;2.47;;
35803;SDS011;21924;51.934;7.414;2023-06-14T05:53:35;11.20;;;2.65;;
35803;SDS011;21924;51.934;7.414;2023-06-14T05:56:19;4.75;;;2.15;;
35803;SDS011;21924;51.934;7.414;2023-06-14T05:59:03;4.13;;;2.40;;
35803;SDS011;21924;51.934;7.414;2023-06-14T06:01:48;6.53;;;2.40;;
35803;SDS011;21924;51.934;7.414;2023-06-14T06:04:32;6.80;;;2.70;;
35803;SDS011;21924;51.934;7.414;2023-06-14T06:07:16;4.60;;;2.58;;
35803;SDS011;21924;51.934;7.414;2023-06-14T06:10:00;5.28;;;2.22;;
35803;SDS011;21924;51.934;7.414;2023-06-14T06:12:45;4.80;;;2.00;;
35803;SDS011;21924;51.934;7.414;2023-06-14T06:15:31;5.07;;;2.17;;
35803;SDS011;21924;51.934;7.414;2023-06-14T06:18:15;9.80;;;2.77;;
35803;SDS011;21924;51.934;7.414;2023-06-14T06:20:59;5.80;;;2.20;;
35803;SDS011;21924;51.934;7.414;2023-06-14T06:23:43;4.85;;;2.10;;
35803;SDS011;21924;51.934;7.414;2023-06-14T06:26:28;3.67;;;1.80;;
35803;SDS011;21924;51.934;7.414;2023-06-14T06:29:12;6.65;;;1.92;;
35803;SDS011;21924;51.934;7.414;2023-06-14T06:31:57;5.60;;;1.95;;
35803;SDS011;21924;51.934;7.414;2023-06-14T06:34:41;3.25;;;1.92;;
35803;SDS011;21924;51.934;7.414;2023-06-14T06:37:26;4.22;;;1.65;;
35803;SDS011;21924;51.934;7.414;2023-06-14T06:40:10;3.97;;;1.70;;
35803;SDS011;21924;51.934;7.414;2023-06-14T06:42:54;4.50;;;1.90;;
35803;SDS011;21924;51.934;7.414;2023-06-14T06:45:39;4.57;;;1.73;;
35803;SDS011;21924;51.934;7.414;2023-06-14T06:48:24;4.88;;;1.70;;
35803;SDS011;21924;51.934;7.414;2023-06-14T06:51:08;10.00;;;2.03;;
35803;SDS011;21924;51.934;7.414;2023-06-14T06:53:53;5.65;;;1.65;;
35803;SDS011;21924;51.934;7.414;2023-06-14T06:56:37;4.57;;;1.50;;
35803;SDS011;21924;51.934;7.414;2023-06-14T06:59:21;3.28;;;1.50;;
35803;SDS011;21924;51.934;7.414;2023-06-14T07:02:15;2.80;;;1.45;;
35803;SDS011;21924;51.934;7.414;2023-06-14T07:05:00;2.40;;;1.67;;
35803;SDS011;21924;51.934;7.414;2023-06-14T07:07:44;6.63;;;2.10;;
35803;SDS011;21924;51.934;7.414;2023-06-14T07:10:29;5.53;;;1.30;;
35803;SDS011;21924;51.934;7.414;2023-06-14T07:13:13;2.47;;;1.30;;
35803;SDS011;21924;51.934;7.414;2023-06-14T07:15:58;2.72;;;1.15;;
35803;SDS011;21924;51.934;7.414;2023-06-14T07:18:43;6.22;;;1.60;;
35803;SDS011;21924;51.934;7.414;2023-06-14T07:21:28;1.77;;;1.33;;
35803;SDS011;21924;51.934;7.414;2023-06-14T07:24:13;2.17;;;1.60;;
35803;SDS011;21924;51.934;7.414;2023-06-14T07:26:57;2.67;;;1.40;;
35803;SDS011;21924;51.934;7.414;2023-06-14T07:29:41;2.10;;;1.50;;
35803;SDS011;21924;51.934;7.414;2023-06-14T07:32:25;3.00;;;1.50;;
35803;SDS011;21924;51.934;7.414;2023-06-14T07:35:09;3.28;;;1.50;;
35803;SDS011;21924;51.934;7.414;2023-06-14T07:37:53;2.70;;;1.58;;
35803;SDS011;21924;51.934;7.414;2023-06-14T07:40:37;3.03;;;1.40;;
35803;SDS011;21924;51.934;7.414;2023-06-14T07:43:21;2.78;;;1.50;;
35803;SDS011;21924;51.934;7.414;2023-06-14T07:46:05;4.45;;;1.42;;
35803;SDS011;21924;51.934;7.414;2023-06-14T07:48:49;3.33;;;1.58;;
35803;SDS011;21924;51.934;7.414;2023-06-14T07:51:33;7.10;;;1.60;;
35803;SDS011;21924;51.934;7.414;2023-06-14T07:54:17;3.97;;;1.52;;
35803;SDS011;21924;51.934;7.414;2023-06-14T07:57:01;4.63;;;1.50;;
35803;SDS011;21924;51.934;7.414;2023-06-14T07:59:46;4.97;;;1.63;;
35803;SDS011;21924;51.934;7.414;2023-06-14T08:02:30;2.85;;;1.48;;
35803;SDS011;21924;51.934;7.414;2023-06-14T08:05:14;2.67;;;1.45;;
35803;SDS011;21924;51.934;7.414;2023-06-14T08:07:58;5.75;;;1.58;;
35803;SDS011;21924;51.934;7.414;2023-06-14T08:10:42;1.90;;;1.10;;
35803;SDS011;21924;51.934;7.414;2023-06-14T08:13:26;4.15;;;1.50;;
35803;SDS011;21924;51.934;7.414;2023-06-14T08:16:10;3.38;;;1.20;;
35803;SDS011;21924;51.934;7.414;2023-06-14T08:18:55;2.30;;;1.60;;
35803;SDS011;21924;51.934;7.414;2023-06-14T08:21:39;1.88;;;1.30;;
35803;SDS011;21924;51.934;7.414;2023-06-14T08:24:24;2.00;;;1.20;;
35803;SDS011;21924;51.934;7.414;2023-06-14T08:27:08;3.15;;;1.40;;
35803;SDS011;21924;51.934;7.414;2023-06-14T08:29:52;1.88;;;1.20;;
35803;SDS011;21924;51.934;7.414;2023-06-14T08:32:36;3.53;;;1.50;;
35803;SDS011;21924;51.934;7.414;2023-06-14T08:35:21;5.53;;;1.50;;
35803;SDS011;21924;51.934;7.414;2023-06-14T08:38:05;2.58;;;1.40;;
35803;SDS011;21924;51.934;7.414;2023-06-14T08:40:50;4.68;;;1.30;;
35803;SDS011;21924;51.934;7.414;2023-06-14T08:43:36;3.20;;;1.42;;
35803;SDS011;21924;51.934;7.414;2023-06-14T08:46:20;2.30;;;1.30;;
35803;SDS011;21924;51.934;7.414;2023-06-14T08:49:06;2.28;;;1.10;;
35803;SDS011;21924;51.934;7.414;2023-06-14T08:52:00;3.00;;;1.17;;
35803;SDS011;21924;51.934;7.414;2023-06-14T08:54:45;2.00;;;1.23;;
35803;SDS011;21924;51.934;7.414;2023-06-14T08:57:32;54.60;;;9.05;;
35803;SDS011;21924;51.934;7.414;2023-06-14T09:00:21;28.08;;;5.60;;
35803;SDS011;21924;51.934;7.414;2023-06-14T09:03:06;3.90;;;1.33;;
35803;SDS011;21924;51.934;7.414;2023-06-14T09:05:57;1.35;;;0.75;;
35803;SDS011;21924;51.934;7.414;2023-06-14T09:08:43;13.38;;;1.88;;
35803;SDS011;21924;51.934;7.414;2023-06-14T09:11:28;2.20;;;1.13;;
35803;SDS011;21924;51.934;7.414;2023-06-14T09:14:12;2.35;;;1.20;;
35803;SDS011;21924;51.934;7.414;2023-06-14T09:16:56;1.98;;;1.10;;
35803;SDS011;21924;51.934;7.414;2023-06-14T09:19:40;1.52;;;1.00;;
35803;SDS011;21924;51.934;7.414;2023-06-14T09:22:24;2.00;;;1.10;;
35803;SDS011;21924;51.934;7.414;2023-06-14T09:25:09;1.92;;;1.00;;
35803;SDS011;21924;51.934;7.414;2023-06-14T09:27:53;4.00;;;1.00;;
35803;SDS011;21924;51.934;7.414;2023-06-14T09:30:37;1.77;;;0.80;;
35803;SDS011;21924;51.934;7.414;2023-06-14T09:33:22;2.53;;;1.07;;
35803;SDS011;21924;51.934;7.414;2023-06-14T09:36:09;3.40;;;1.05;;
35803;SDS011;21924;51.934;7.414;2023-06-14T09:38:59;4.20;;;1.00;;
35803;SDS011;21924;51.934;7.414;2023-06-14T09:41:48;2.70;;;0.90;;
35803;SDS011;21924;51.934;7.414;2023-06-14T09:44:32;2.60;;;0.88;;
35803;SDS011;21924;51.934;7.414;2023-06-14T09:47:16;1.70;;;0.93;;
35803;SDS011;21924;51.934;7.414;2023-06-14T09:50:00;4.88;;;1.20;;
35803;SDS011;21924;51.934;7.414;2023-06-14T09:52:44;1.83;;;0.97;;
35803;SDS011;21924;51.934;7.414;2023-06-14T09:55:31;1.63;;;0.90;;
35803;SDS011;21924;51.934;7.414;2023-06-14T09:58:20;2.35;;;1.02;;
35803;SDS011;21924;51.934;7.414;2023-06-14T10:01:06;4.90;;;1.80;;
35803;SDS011;21924;51.934;7.414;2023-06-14T10:03:58;1.63;;;0.90;;
35803;SDS011;21924;51.934;7.414;2023-06-14T10:06:48;4.40;;;1.08;;
35803;SDS011;21924;51.934;7.414;2023-06-14T10:09:34;2.60;;;0.90;;
35803;SDS011;21924;51.934;7.414;2023-06-14T10:12:19;4.03;;;1.40;;
35803;SDS011;21924;51.934;7.414;2023-06-14T10:15:11;6.32;;;1.40;;
35803;SDS011;21924;51.934;7.414;2023-06-14T10:18:08;7.00;;;1.15;;
35803;SDS011;21924;51.934;7.414;2023-06-14T10:23:56;2.43;;;0.90;;
35803;SDS011;21924;51.934;7.414;2023-06-14T10:26:51;3.10;;;1.20;;
35803;SDS011;21924;51.934;7.414;2023-06-14T10:33:00;4.40;;;1.08;;
35803;SDS011;21924;51.934;7.414;2023-06-14T10:35:51;2.55;;;1.05;;
35803;SDS011;21924;51.934;7.414;2023-06-14T10:41:52;2.88;;;1.20;;
35803;SDS011;21924;51.934;7.414;2023-06-14T10:47:26;2.28;;;0.98;;
35803;SDS011;21924;51.934;7.414;2023-06-14T10:50:27;6.55;;;1.00;;
35803;SDS011;21924;51.934;7.414;2023-06-14T10:53:21;1.60;;;1.10;;
35803;SDS011;21924;51.934;7.414;2023-06-14T10:56:07;4.78;;;0.90;;
35803;SDS011;21924;51.934;7.414;2023-06-14T10:58:51;2.58;;;1.00;;
35803;SDS011;21924;51.934;7.414;2023-06-14T11:01:36;2.27;;;0.87;;
35803;SDS011;21924;51.934;7.414;2023-06-14T11:04:22;1.20;;;0.70;;
35803;SDS011;21924;51.934;7.414;2023-06-14T11:10:39;2.42;;;0.93;;
35803;SDS011;21924;51.934;7.414;2023-06-14T11:13:25;5.53;;;1.40;;
35803;SDS011;21924;51.934;7.414;2023-06-14T11:16:10;3.33;;;1.40;;
35803;SDS011;21924;51.934;7.414;2023-06-14T11:19:00;2.13;;;1.20;;
35803;SDS011;21924;51.934;7.414;2023-06-14T11:21:48;3.95;;;1.10;;
35803;SDS011;21924;51.934;7.414;2023-06-14T11:24:33;3.70;;;1.20;;
35803;SDS011;21924;51.934;7.414;2023-06-14T11:27:17;3.87;;;1.07;;
35803;SDS011;21924;51.934;7.414;2023-06-14T11:30:01;2.22;;;1.35;;
35803;SDS011;21924;51.934;7.414;2023-06-14T11:32:47;3.05;;;1.10;;
35803;SDS011;21924;51.934;7.414;2023-06-14T11:35:31;3.20;;;1.27;;
35803;SDS011;21924;51.934;7.414;2023-06-14T11:38:17;4.20;;;1.17;;
35803;SDS011;21924;51.934;7.414;2023-06-14T11:41:01;3.20;;;1.10;;
35803;SDS011;21924;51.934;7.414;2023-06-14T11:43:45;3.33;;;1.10;;
35803;SDS011;21924;51.934;7.414;2023-06-14T11:46:29;3.63;;;1.27;;
35803;SDS011;21924;51.934;7.414;2023-06-14T11:49:14;2.97;;;1.10;;
35803;SDS011;21924;51.934;7.414;2023-06-14T11:51:58;2.15;;;1.38;;
35803;SDS011;21924;51.934;7.414;2023-06-14T11:54:42;3.25;;;1.27;;
35803;SDS011;21924;51.934;7.414;2023-06-14T11:57:27;1.88;;;1.08;;
35803;SDS011;21924;51.934;7.414;2023-06-14T12:00:11;2.17;;;1.30;;
35803;SDS011;21924;51.934;7.414;2023-06-14T12:02:56;3.45;;;1.10;;
35803;SDS011;21924;51.934;7.414;2023-06-14T12:05:41;3.05;;;1.25;;
35803;SDS011;21924;51.934;7.414;2023-06-14T12:08:26;4.25;;;1.27;;
35803;SDS011;21924;51.934;7.414;2023-06-14T12:11:22;3.10;;;1.23;;
35803;SDS011;21924;51.934;7.414;2023-06-14T12:14:07;5.05;;;1.70;;
35803;SDS011;21924;51.934;7.414;2023-06-14T12:17:03;3.60;;;1.20;;
35803;SDS011;21924;51.934;7.414;2023-06-14T12:19:49;3.22;;;1.48;;
35803;SDS011;21924;51.934;7.414;2023-06-14T12:22:34;3.78;;;1.35;;
35803;SDS011;21924;51.934;7.414;2023-06-14T12:28:16;3.05;;;1.50;;
35803;SDS011;21924;51.934;7.414;2023-06-14T12:31:00;4.10;;;1.20;;
35803;SDS011;21924;51.934;7.414;2023-06-14T12:33:44;2.85;;;1.40;;
35803;SDS011;21924;51.934;7.414;2023-06-14T12:36:32;6.30;;;1.30;;
35803;SDS011;21924;51.934;7.414;2023-06-14T12:39:17;2.42;;;1.40;;
35803;SDS011;21924;51.934;7.414;2023-06-14T12:42:01;4.40;;;1.50;;
35803;SDS011;21924;51.934;7.414;2023-06-14T12:44:47;3.95;;;1.20;;
35803;SDS011;21924;51.934;7.414;2023-06-14T12:47:32;3.88;;;1.48;;
35803;SDS011;21924;51.934;7.414;2023-06-14T12:50:16;1.35;;;1.08;;
35803;SDS011;21924;51.934;7.414;2023-06-14T12:53:00;2.13;;;1.30;;
35803;SDS011;21924;51.934;7.414;2023-06-14T12:55:44;3.60;;;1.25;;
35803;SDS011;21924;51.934;7.414;2023-06-14T12:58:29;1.67;;;1.20;;
35803;SDS011;21924;51.934;7.414;2023-06-14T13:01:13;2.72;;;1.30;;
35803;SDS011;21924;51.934;7.414;2023-06-14T13:03:57;1.88;;;1.20;;
35803;SDS011;21924;51.934;7.414;2023-06-14T13:06:41;4.50;;;1.43;;
35803;SDS011;21924;51.934;7.414;2023-06-14T13:09:25;3.72;;;1.10;;
35803;SDS011;21924;51.934;7.414;2023-06-14T13:12:10;5.40;;;1.47;;
35803;SDS011;21924;51.934;7.414;2023-06-14T13:14:56;9.73;;;2.10;;
35803;SDS011;21924;51.934;7.414;2023-06-14T13:17:40;7.95;;;1.55;;
35803;SDS011;21924;51.934;7.414;2023-06-14T13:20:25;4.00;;;1.27;;
35803;SDS011;21924;51.934;7.414;2023-06-14T13:23:09;6.28;;;2.00;;
35803;SDS011;21924;51.934;7.414;2023-06-14T13:25:54;7.13;;;2.33;;
35803;SDS011;21924;51.934;7.414;2023-06-14T13:28:38;1.70;;;1.25;;
35803;SDS011;21924;51.934;7.414;2023-06-14T13:31:22;3.00;;;1.38;;
35803;SDS011;21924;51.934;7.414;2023-06-14T13:34:06;2.70;;;1.50;;
35803;SDS011;21924;51.934;7.414;2023-06-14T13:36:50;4.60;;;1.42;;
35803;SDS011;21924;51.934;7.414;2023-06-14T13:39:34;5.28;;;1.20;;
35803;SDS011;21924;51.934;7.414;2023-06-14T13:42:20;1.90;;;1.13;;
35803;SDS011;21924;51.934;7.414;2023-06-14T13:45:05;2.42;;;1.30;;
35803;SDS011;21924;51.934;7.414;2023-06-14T13:47:50;4.30;;;1.30;;
35803;SDS011;21924;51.934;7.414;2023-06-14T13:50:35;2.90;;;1.50;;
35803;SDS011;21924;51.934;7.414;2023-06-14T13:53:19;2.72;;;1.17;;
35803;SDS011;21924;51.934;7.414;2023-06-14T13:56:03;2.40;;;1.10;;
35803;SDS011;21924;51.934;7.414;2023-06-14T14:39:52;3.10;;;1.08;;
35803;SDS011;21924;51.934;7.414;2023-06-14T14:42:37;2.95;;;0.98;;
35803;SDS011;21924;51.934;7.414;2023-06-14T14:45:21;1.35;;;1.00;;
35803;SDS011;21924;51.934;7.414;2023-06-14T14:48:05;1.40;;;0.90;;
35803;SDS011;21924;51.934;7.414;2023-06-14T14:50:49;2.72;;;0.80;;
35803;SDS011;21924;51.934;7.414;2023-06-14T14:53:33;1.95;;;0.88;;
35803;SDS011;21924;51.934;7.414;2023-06-14T14:56:17;1.33;;;1.02;;
35803;SDS011;21924;51.934;7.414;2023-06-14T14:59:01;2.45;;;0.90;;
35803;SDS011;21924;51.934;7.414;2023-06-14T15:01:46;2.28;;;1.23;;
35803;SDS011;21924;51.934;7.414;2023-06-14T15:04:30;4.55;;;1.50;;
35803;SDS011;21924;51.934;7.414;2023-06-14T15:07:14;3.08;;;1.13;;
35803;SDS011;21924;51.934;7.414;2023-06-14T15:09:59;2.40;;;1.00;;
35803;SDS011;21924;51.934;7.414;2023-06-14T15:12:43;3.65;;;1.00;;
35803;SDS011;21924;51.934;7.414;2023-06-14T15:15:27;4.25;;;1.30;;
35803;SDS011;21924;51.934;7.414;2023-06-14T15:18:11;1.95;;;1.00;;
35803;SDS011;21924;51.934;7.414;2023-06-14T15:20:56;3.50;;;1.10;;
35803;SDS011;21924;51.934;7.414;2023-06-14T15:23:40;2.13;;;1.20;;
35803;SDS011;21924;51.934;7.414;2023-06-14T18:27:17;7.75;;;2.95;;
35803;SDS011;21924;51.934;7.414;2023-06-14T18:30:02;10.70;;;2.28;;
35803;SDS011;21924;51.934;7.414;2023-06-14T18:32:46;2.13;;;1.60;;
35803;SDS011;21924;51.934;7.414;2023-06-14T18:35:30;6.10;;;1.73;;
35803;SDS011;21924;51.934;7.414;2023-06-14T18:38:14;3.47;;;1.88;;
35803;SDS011;21924;51.934;7.414;2023-06-14T18:40:58;4.15;;;1.77;;
35803;SDS011;21924;51.934;7.414;2023-06-14T18:43:42;5.80;;;1.95;;
35803;SDS011;21924;51.934;7.414;2023-06-14T18:46:26;3.38;;;2.10;;
35803;SDS011;21924;51.934;7.414;2023-06-14T18:49:11;4.05;;;1.73;;
35803;SDS011;21924;51.934;7.414;2023-06-14T18:51:56;6.43;;;1.95;;
35803;SDS011;21924;51.934;7.414;2023-06-14T18:54:40;6.13;;;2.20;;
35803;SDS011;21924;51.934;7.414;2023-06-14T18:57:24;5.13;;;2.00;;
35803;SDS011;21924;51.934;7.414;2023-06-14T19:00:09;2.97;;;2.00;;
35803;SDS011;21924;51.934;7.414;2023-06-14T19:02:53;5.20;;;1.80;;
35803;SDS011;21924;51.934;7.414;2023-06-14T19:05:38;4.95;;;1.88;;
35803;SDS011;21924;51.934;7.414;2023-06-14T19:08:22;5.33;;;2.00;;
35803;SDS011;21924;51.934;7.414;2023-06-14T19:11:06;4.82;;;2.03;;
35803;SDS011;21924;51.934;7.414;2023-06-14T19:13:51;25.10;;;4.77;;
35803;SDS011;21924;51.934;7.414;2023-06-14T19:16:35;9.13;;;4.70;;
35803;SDS011;21924;51.934;7.414;2023-06-14T19:19:19;6.30;;;3.15;;
35803;SDS011;21924;51.934;7.414;2023-06-14T19:22:06;4.53;;;2.00;;
35803;SDS011;21924;51.934;7.414;2023-06-14T19:24:50;7.15;;;2.03;;
35803;SDS011;21924;51.934;7.414;2023-06-14T19:27:36;3.50;;;2.20;;
35803;SDS011;21924;51.934;7.414;2023-06-14T19:30:20;23.77;;;3.10;;
35803;SDS011;21924;51.934;7.414;2023-06-14T19:33:04;15.02;;;2.80;;
35803;SDS011;21924;51.934;7.414;2023-06-14T19:35:48;5.85;;;2.35;;
35803;SDS011;21924;51.934;7.414;2023-06-14T19:38:32;5.67;;;2.60;;
35803;SDS011;21924;51.934;7.414;2023-06-14T19:41:16;4.82;;;2.85;;
35803;SDS011;21924;51.934;7.414;2023-06-14T19:44:01;6.70;;;2.50;;
35803;SDS011;21924;51.934;7.414;2023-06-14T19:46:45;5.82;;;2.40;;
35803;SDS011;21924;51.934;7.414;2023-06-14T19:49:29;6.28;;;2.00;;
35803;SDS011;21924;51.934;7.414;2023-06-14T19:52:14;5.63;;;2.50;;
35803;SDS011;21924;51.934;7.414;2023-06-14T19:54:58;4.97;;;2.40;;
35803;SDS011;21924;51.934;7.414;2023-06-14T19:57:42;6.28;;;2.58;;
35803;SDS011;21924;51.934;7.414;2023-06-14T20:00:26;8.33;;;2.53;;
35803;SDS011;21924;51.934;7.414;2023-06-14T20:03:10;4.68;;;2.88;;
35803;SDS011;21924;51.934;7.414;2023-06-14T20:05:56;8.18;;;2.50;;
35803;SDS011;21924;51.934;7.414;2023-06-14T20:08:40;4.65;;;2.30;;
35803;SDS011;21924;51.934;7.414;2023-06-14T20:11:24;4.28;;;2.45;;
35803;SDS011;21924;51.934;7.414;2023-06-14T20:14:09;6.72;;;2.60;;
35803;SDS011;21924;51.934;7.414;2023-06-14T20:16:53;4.78;;;2.20;;
35803;SDS011;21924;51.934;7.414;2023-06-14T20:19:38;6.15;;;2.30;;
35803;SDS011;21924;51.934;7.414;2023-06-14T20:22:22;4.70;;;2.33;;
35803;SDS011;21924;51.934;7.414;2023-06-14T20:25:07;6.40;;;2.45;;
35803;SDS011;21924;51.934;7.414;2023-06-14T20:27:52;3.33;;;2.20;;
35803;SDS011;21924;51.934;7.414;2023-06-14T20:30:36;5.90;;;2.63;;
35803;SDS011;21924;51.934;7.414;2023-06-14T20:33:20;4.55;;;2.63;;
35803;SDS011;21924;51.934;7.414;2023-06-14T20:36:04;9.20;;;2.70;;
35803;SDS011;21924;51.934;7.414;2023-06-14T20:38:48;6.10;;;2.63;;
35803;SDS011;21924;51.934;7.414;2023-06-14T20:41:32;4.00;;;2.27;;